sensor_id;sensor_type;location;lat;lon;timestamp;P1;durP1;ratioP1;P2;durP2;ratioP2
14048;SDS011;7099;53.922;10.728;2023-07-29T00:00:05;2.97;;;2.30;;
14048;SDS011;7099;53.922;10.728;2023-07-29T00:04:11;3.80;;;2.20;;
14048;SDS011;7099;53.922;10.728;2023-07-29T00:08:17;3.70;;;2.43;;
14048;SDS011;7099;53.922;10.728;2023-07-29T00:12:23;6.60;;;2.67;;
14048;SDS011;7099;53.922;10.728;2023-07-29T00:16:28;4.00;;;2.43;;
14048;SDS011;7099;53.922;10.728;2023-07-29T00:20:34;2.77;;;2.57;;
14048;SDS011;7099;53.922;10.728;2023-07-29T00:24:40;3.43;;;2.50;;
14048;SDS011;7099;53.922;10.728;2023-07-29T00:28:46;5.50;;;3.20;;
14048;SDS011;7099;53.922;10.728;2023-07-29T00:32:51;3.30;;;2.37;;
14048;SDS011;7099;53.922;10.728;2023-07-29T00:36:57;4.10;;;3.10;;
14048;SDS011;7099;53.922;10.728;2023-07-29T00:41:03;3.20;;;2.40;;
14048;SDS011;7099;53.922;10.728;2023-07-29T00:45:09;11.53;;;3.17;;
14048;SDS011;7099;53.922;10.728;2023-07-29T00:49:15;3.47;;;2.40;;
14048;SDS011;7099;53.922;10.728;2023-07-29T00:53:20;4.03;;;2.90;;
14048;SDS011;7099;53.922;10.728;2023-07-29T00:57:26;6.83;;;3.03;;
14048;SDS011;7099;53.922;10.728;2023-07-29T01:01:34;3.50;;;2.63;;
14048;SDS011;7099;53.922;10.728;2023-07-29T01:05:50;2.60;;;2.30;;
14048;SDS011;7099;53.922;10.728;2023-07-29T01:24:08;2.70;;;2.33;;
14048;SDS011;7099;53.922;10.728;2023-07-29T01:28:14;4.37;;;2.50;;
14048;SDS011;7099;53.922;10.728;2023-07-29T01:32:30;4.40;;;3.00;;
14048;SDS011;7099;53.922;10.728;2023-07-29T01:36:40;7.40;;;3.00;;
14048;SDS011;7099;53.922;10.728;2023-07-29T01:40:51;3.60;;;2.70;;
14048;SDS011;7099;53.922;10.728;2023-07-29T01:44:58;2.73;;;2.43;;
14048;SDS011;7099;53.922;10.728;2023-07-29T01:49:04;4.67;;;2.40;;
14048;SDS011;7099;53.922;10.728;2023-07-29T01:53:10;4.17;;;2.60;;
14048;SDS011;7099;53.922;10.728;2023-07-29T01:57:15;3.93;;;2.60;;
14048;SDS011;7099;53.922;10.728;2023-07-29T02:01:21;6.07;;;3.20;;
14048;SDS011;7099;53.922;10.728;2023-07-29T02:05:27;6.40;;;3.30;;
14048;SDS011;7099;53.922;10.728;2023-07-29T02:09:32;3.47;;;3.10;;
14048;SDS011;7099;53.922;10.728;2023-07-29T02:13:38;3.90;;;3.20;;
14048;SDS011;7099;53.922;10.728;2023-07-29T02:17:43;4.23;;;3.17;;
14048;SDS011;7099;53.922;10.728;2023-07-29T02:21:49;5.67;;;3.20;;
14048;SDS011;7099;53.922;10.728;2023-07-29T02:25:54;7.37;;;3.20;;
14048;SDS011;7099;53.922;10.728;2023-07-29T02:30:00;4.10;;;2.93;;
14048;SDS011;7099;53.922;10.728;2023-07-29T02:34:06;6.17;;;3.03;;
14048;SDS011;7099;53.922;10.728;2023-07-29T02:38:11;4.83;;;3.07;;
14048;SDS011;7099;53.922;10.728;2023-07-29T02:42:18;5.10;;;3.10;;
14048;SDS011;7099;53.922;10.728;2023-07-29T02:46:24;9.20;;;2.90;;
14048;SDS011;7099;53.922;10.728;2023-07-29T02:50:29;3.47;;;3.00;;
14048;SDS011;7099;53.922;10.728;2023-07-29T02:54:35;3.53;;;3.23;;
14048;SDS011;7099;53.922;10.728;2023-07-29T02:58:40;11.37;;;3.03;;
14048;SDS011;7099;53.922;10.728;2023-07-29T03:02:46;4.10;;;2.97;;
14048;SDS011;7099;53.922;10.728;2023-07-29T03:06:51;3.60;;;2.70;;
14048;SDS011;7099;53.922;10.728;2023-07-29T03:10:57;3.40;;;3.03;;
14048;SDS011;7099;53.922;10.728;2023-07-29T03:15:03;3.30;;;2.73;;
14048;SDS011;7099;53.922;10.728;2023-07-29T03:19:09;4.77;;;3.30;;
14048;SDS011;7099;53.922;10.728;2023-07-29T03:23:17;7.57;;;2.87;;
14048;SDS011;7099;53.922;10.728;2023-07-29T03:27:22;3.40;;;3.00;;
14048;SDS011;7099;53.922;10.728;2023-07-29T03:31:28;3.57;;;3.20;;
14048;SDS011;7099;53.922;10.728;2023-07-29T03:35:33;4.30;;;3.60;;
14048;SDS011;7099;53.922;10.728;2023-07-29T03:39:39;12.33;;;3.67;;
14048;SDS011;7099;53.922;10.728;2023-07-29T03:43:44;4.20;;;3.30;;
14048;SDS011;7099;53.922;10.728;2023-07-29T03:47:50;7.20;;;3.77;;
14048;SDS011;7099;53.922;10.728;2023-07-29T03:51:56;4.20;;;3.30;;
14048;SDS011;7099;53.922;10.728;2023-07-29T03:56:01;4.83;;;3.87;;
14048;SDS011;7099;53.922;10.728;2023-07-29T04:00:07;4.40;;;4.00;;
14048;SDS011;7099;53.922;10.728;2023-07-29T04:04:15;7.17;;;3.80;;
14048;SDS011;7099;53.922;10.728;2023-07-29T04:08:21;4.63;;;3.90;;
14048;SDS011;7099;53.922;10.728;2023-07-29T04:12:26;4.50;;;4.10;;
14048;SDS011;7099;53.922;10.728;2023-07-29T04:16:32;3.73;;;3.20;;
14048;SDS011;7099;53.922;10.728;2023-07-29T04:20:38;6.13;;;4.53;;
14048;SDS011;7099;53.922;10.728;2023-07-29T04:24:43;4.77;;;4.00;;
14048;SDS011;7099;53.922;10.728;2023-07-29T04:28:49;5.70;;;4.60;;
14048;SDS011;7099;53.922;10.728;2023-07-29T04:32:54;8.07;;;4.20;;
14048;SDS011;7099;53.922;10.728;2023-07-29T04:37:00;4.63;;;4.20;;
14048;SDS011;7099;53.922;10.728;2023-07-29T04:41:06;9.13;;;5.10;;
14048;SDS011;7099;53.922;10.728;2023-07-29T04:45:13;5.20;;;4.10;;
14048;SDS011;7099;53.922;10.728;2023-07-29T04:49:19;6.90;;;4.50;;
14048;SDS011;7099;53.922;10.728;2023-07-29T04:53:24;7.07;;;5.67;;
14048;SDS011;7099;53.922;10.728;2023-07-29T04:57:30;8.50;;;5.27;;
14048;SDS011;7099;53.922;10.728;2023-07-29T05:01:35;9.03;;;5.00;;
14048;SDS011;7099;53.922;10.728;2023-07-29T05:05:41;5.97;;;5.20;;
14048;SDS011;7099;53.922;10.728;2023-07-29T05:09:47;9.07;;;6.10;;
14048;SDS011;7099;53.922;10.728;2023-07-29T05:13:53;5.93;;;5.13;;
14048;SDS011;7099;53.922;10.728;2023-07-29T05:17:58;7.67;;;5.63;;
14048;SDS011;7099;53.922;10.728;2023-07-29T05:22:04;6.23;;;5.23;;
14048;SDS011;7099;53.922;10.728;2023-07-29T05:26:09;10.17;;;6.50;;
14048;SDS011;7099;53.922;10.728;2023-07-29T05:30:15;7.30;;;5.87;;
14048;SDS011;7099;53.922;10.728;2023-07-29T05:34:20;10.97;;;7.70;;
14048;SDS011;7099;53.922;10.728;2023-07-29T05:38:26;10.23;;;7.30;;
14048;SDS011;7099;53.922;10.728;2023-07-29T05:42:31;10.33;;;7.40;;
14048;SDS011;7099;53.922;10.728;2023-07-29T05:46:37;12.07;;;8.53;;
14048;SDS011;7099;53.922;10.728;2023-07-29T05:50:43;15.90;;;9.47;;
14048;SDS011;7099;53.922;10.728;2023-07-29T05:54:49;12.83;;;9.60;;
14048;SDS011;7099;53.922;10.728;2023-07-29T05:58:55;12.73;;;10.20;;
14048;SDS011;7099;53.922;10.728;2023-07-29T06:03:00;14.43;;;10.07;;
14048;SDS011;7099;53.922;10.728;2023-07-29T06:07:06;21.90;;;11.60;;
14048;SDS011;7099;53.922;10.728;2023-07-29T06:11:11;22.00;;;14.57;;
14048;SDS011;7099;53.922;10.728;2023-07-29T06:15:17;24.67;;;15.67;;
14048;SDS011;7099;53.922;10.728;2023-07-29T06:19:26;25.10;;;15.87;;
14048;SDS011;7099;53.922;10.728;2023-07-29T06:23:32;29.87;;;18.17;;
14048;SDS011;7099;53.922;10.728;2023-07-29T06:27:37;29.17;;;17.30;;
14048;SDS011;7099;53.922;10.728;2023-07-29T06:31:43;24.93;;;16.67;;
14048;SDS011;7099;53.922;10.728;2023-07-29T06:35:49;30.83;;;18.50;;
14048;SDS011;7099;53.922;10.728;2023-07-29T06:39:54;31.10;;;19.33;;
14048;SDS011;7099;53.922;10.728;2023-07-29T06:43:59;31.90;;;18.70;;
14048;SDS011;7099;53.922;10.728;2023-07-29T06:48:05;28.03;;;19.33;;
14048;SDS011;7099;53.922;10.728;2023-07-29T06:52:10;29.70;;;20.30;;
14048;SDS011;7099;53.922;10.728;2023-07-29T06:56:16;27.83;;;18.57;;
14048;SDS011;7099;53.922;10.728;2023-07-29T07:00:21;25.80;;;19.30;;
14048;SDS011;7099;53.922;10.728;2023-07-29T07:04:27;25.43;;;18.90;;
14048;SDS011;7099;53.922;10.728;2023-07-29T07:08:32;25.00;;;18.93;;
14048;SDS011;7099;53.922;10.728;2023-07-29T07:12:38;24.60;;;17.77;;
14048;SDS011;7099;53.922;10.728;2023-07-29T07:16:43;26.53;;;19.50;;
14048;SDS011;7099;53.922;10.728;2023-07-29T07:20:49;25.80;;;17.70;;
14048;SDS011;7099;53.922;10.728;2023-07-29T07:24:55;21.80;;;16.87;;
14048;SDS011;7099;53.922;10.728;2023-07-29T07:29:01;20.00;;;16.00;;
14048;SDS011;7099;53.922;10.728;2023-07-29T07:33:07;20.53;;;15.47;;
14048;SDS011;7099;53.922;10.728;2023-07-29T07:37:12;18.50;;;15.07;;
14048;SDS011;7099;53.922;10.728;2023-07-29T07:41:18;17.33;;;14.20;;
14048;SDS011;7099;53.922;10.728;2023-07-29T07:45:23;19.43;;;15.33;;
14048;SDS011;7099;53.922;10.728;2023-07-29T07:49:29;19.53;;;14.30;;
14048;SDS011;7099;53.922;10.728;2023-07-29T07:53:34;21.27;;;13.80;;
14048;SDS011;7099;53.922;10.728;2023-07-29T07:57:40;15.43;;;13.30;;
14048;SDS011;7099;53.922;10.728;2023-07-29T08:01:45;15.70;;;12.80;;
14048;SDS011;7099;53.922;10.728;2023-07-29T08:05:51;16.83;;;13.90;;
14048;SDS011;7099;53.922;10.728;2023-07-29T08:09:57;18.80;;;14.63;;
14048;SDS011;7099;53.922;10.728;2023-07-29T08:14:02;18.90;;;13.07;;
14048;SDS011;7099;53.922;10.728;2023-07-29T08:18:08;15.17;;;12.60;;
14048;SDS011;7099;53.922;10.728;2023-07-29T08:22:13;20.00;;;13.30;;
14048;SDS011;7099;53.922;10.728;2023-07-29T08:26:21;16.73;;;13.73;;
14048;SDS011;7099;53.922;10.728;2023-07-29T08:30:27;16.90;;;12.10;;
14048;SDS011;7099;53.922;10.728;2023-07-29T08:34:33;18.30;;;13.63;;
14048;SDS011;7099;53.922;10.728;2023-07-29T08:38:38;18.23;;;14.60;;
14048;SDS011;7099;53.922;10.728;2023-07-29T08:42:44;20.27;;;14.40;;
14048;SDS011;7099;53.922;10.728;2023-07-29T08:46:52;16.87;;;13.80;;
14048;SDS011;7099;53.922;10.728;2023-07-29T08:50:59;17.87;;;14.40;;
14048;SDS011;7099;53.922;10.728;2023-07-29T08:55:08;21.33;;;15.90;;
14048;SDS011;7099;53.922;10.728;2023-07-29T08:59:14;21.37;;;14.87;;
14048;SDS011;7099;53.922;10.728;2023-07-29T09:03:21;20.70;;;16.50;;
14048;SDS011;7099;53.922;10.728;2023-07-29T09:07:27;18.10;;;15.43;;
14048;SDS011;7099;53.922;10.728;2023-07-29T09:11:34;23.50;;;17.40;;
14048;SDS011;7099;53.922;10.728;2023-07-29T09:15:40;28.03;;;18.00;;
14048;SDS011;7099;53.922;10.728;2023-07-29T09:19:50;25.73;;;17.90;;
14048;SDS011;7099;53.922;10.728;2023-07-29T09:23:55;22.00;;;14.50;;
14048;SDS011;7099;53.922;10.728;2023-07-29T09:28:01;19.57;;;11.93;;
14048;SDS011;7099;53.922;10.728;2023-07-29T09:32:21;10.83;;;9.70;;
14048;SDS011;7099;53.922;10.728;2023-07-29T09:36:30;15.70;;;12.23;;
14048;SDS011;7099;53.922;10.728;2023-07-29T09:40:39;18.17;;;13.40;;
14048;SDS011;7099;53.922;10.728;2023-07-29T09:44:46;20.43;;;14.90;;
14048;SDS011;7099;53.922;10.728;2023-07-29T09:48:53;18.07;;;14.07;;
14048;SDS011;7099;53.922;10.728;2023-07-29T09:53:01;20.33;;;12.07;;
14048;SDS011;7099;53.922;10.728;2023-07-29T09:57:08;15.33;;;13.73;;
14048;SDS011;7099;53.922;10.728;2023-07-29T10:01:13;15.93;;;12.00;;
14048;SDS011;7099;53.922;10.728;2023-07-29T10:05:20;16.70;;;14.30;;
14048;SDS011;7099;53.922;10.728;2023-07-29T10:09:27;16.03;;;13.37;;
14048;SDS011;7099;53.922;10.728;2023-07-29T10:13:34;25.77;;;15.27;;
14048;SDS011;7099;53.922;10.728;2023-07-29T10:17:41;19.33;;;14.73;;
14048;SDS011;7099;53.922;10.728;2023-07-29T10:21:46;18.57;;;15.53;;
14048;SDS011;7099;53.922;10.728;2023-07-29T10:25:57;17.33;;;15.17;;
14048;SDS011;7099;53.922;10.728;2023-07-29T10:30:11;15.63;;;13.87;;
14048;SDS011;7099;53.922;10.728;2023-07-29T10:34:18;15.60;;;12.80;;
14048;SDS011;7099;53.922;10.728;2023-07-29T10:38:25;16.10;;;12.30;;
14048;SDS011;7099;53.922;10.728;2023-07-29T10:42:31;12.80;;;11.40;;
14048;SDS011;7099;53.922;10.728;2023-07-29T10:46:37;15.80;;;11.20;;
14048;SDS011;7099;53.922;10.728;2023-07-29T10:50:42;13.87;;;10.70;;
14048;SDS011;7099;53.922;10.728;2023-07-29T10:54:48;13.00;;;9.60;;
14048;SDS011;7099;53.922;10.728;2023-07-29T11:03:40;11.23;;;9.60;;
14048;SDS011;7099;53.922;10.728;2023-07-29T11:07:49;13.43;;;9.07;;
14048;SDS011;7099;53.922;10.728;2023-07-29T11:11:55;10.50;;;8.50;;
14048;SDS011;7099;53.922;10.728;2023-07-29T11:16:02;12.77;;;8.20;;
14048;SDS011;7099;53.922;10.728;2023-07-29T11:20:09;7.07;;;6.20;;
14048;SDS011;7099;53.922;10.728;2023-07-29T11:24:18;11.23;;;6.73;;
14048;SDS011;7099;53.922;10.728;2023-07-29T11:28:24;8.10;;;6.60;;
14048;SDS011;7099;53.922;10.728;2023-07-29T11:32:31;7.00;;;5.90;;
14048;SDS011;7099;53.922;10.728;2023-07-29T11:36:43;6.37;;;4.93;;
14048;SDS011;7099;53.922;10.728;2023-07-29T11:45:04;7.50;;;5.07;;
14048;SDS011;7099;53.922;10.728;2023-07-29T11:49:11;6.97;;;4.73;;
14048;SDS011;7099;53.922;10.728;2023-07-29T11:53:17;6.00;;;4.40;;
14048;SDS011;7099;53.922;10.728;2023-07-29T11:57:23;4.10;;;3.70;;
14048;SDS011;7099;53.922;10.728;2023-07-29T12:01:28;9.63;;;3.80;;
14048;SDS011;7099;53.922;10.728;2023-07-29T12:05:34;5.13;;;4.13;;
14048;SDS011;7099;53.922;10.728;2023-07-29T12:09:40;6.40;;;3.50;;
14048;SDS011;7099;53.922;10.728;2023-07-29T12:13:46;4.03;;;3.63;;
14048;SDS011;7099;53.922;10.728;2023-07-29T12:17:53;6.83;;;3.53;;
14048;SDS011;7099;53.922;10.728;2023-07-29T12:22:04;5.07;;;3.43;;
14048;SDS011;7099;53.922;10.728;2023-07-29T12:26:11;5.13;;;3.50;;
14048;SDS011;7099;53.922;10.728;2023-07-29T12:30:19;4.70;;;4.20;;
14048;SDS011;7099;53.922;10.728;2023-07-29T12:34:30;5.60;;;3.70;;
14048;SDS011;7099;53.922;10.728;2023-07-29T12:38:36;4.30;;;3.90;;
14048;SDS011;7099;53.922;10.728;2023-07-29T12:42:41;5.87;;;3.40;;
14048;SDS011;7099;53.922;10.728;2023-07-29T12:46:47;5.20;;;3.20;;
14048;SDS011;7099;53.922;10.728;2023-07-29T12:50:52;4.30;;;3.60;;
14048;SDS011;7099;53.922;10.728;2023-07-29T12:54:58;5.23;;;3.50;;
14048;SDS011;7099;53.922;10.728;2023-07-29T12:59:04;6.00;;;3.53;;
14048;SDS011;7099;53.922;10.728;2023-07-29T13:03:10;3.20;;;2.90;;
14048;SDS011;7099;53.922;10.728;2023-07-29T13:07:16;3.30;;;3.00;;
14048;SDS011;7099;53.922;10.728;2023-07-29T13:11:21;4.80;;;2.90;;
14048;SDS011;7099;53.922;10.728;2023-07-29T13:15:27;2.90;;;2.60;;
14048;SDS011;7099;53.922;10.728;2023-07-29T13:19:32;2.80;;;2.60;;
14048;SDS011;7099;53.922;10.728;2023-07-29T13:23:38;3.43;;;2.60;;
14048;SDS011;7099;53.922;10.728;2023-07-29T13:27:43;3.90;;;3.07;;
14048;SDS011;7099;53.922;10.728;2023-07-29T13:31:48;4.13;;;3.47;;
14048;SDS011;7099;53.922;10.728;2023-07-29T13:35:54;6.40;;;3.20;;
14048;SDS011;7099;53.922;10.728;2023-07-29T13:40:00;3.40;;;3.10;;
14048;SDS011;7099;53.922;10.728;2023-07-29T13:44:05;3.43;;;2.97;;
14048;SDS011;7099;53.922;10.728;2023-07-29T13:48:11;3.87;;;2.53;;
14048;SDS011;7099;53.922;10.728;2023-07-29T13:52:17;3.20;;;2.90;;
14048;SDS011;7099;53.922;10.728;2023-07-29T13:56:22;5.27;;;2.60;;
14048;SDS011;7099;53.922;10.728;2023-07-29T14:00:28;2.80;;;2.60;;
14048;SDS011;7099;53.922;10.728;2023-07-29T14:04:33;11.90;;;4.47;;
14048;SDS011;7099;53.922;10.728;2023-07-29T14:08:39;4.87;;;3.50;;
14048;SDS011;7099;53.922;10.728;2023-07-29T14:12:46;5.67;;;3.23;;
14048;SDS011;7099;53.922;10.728;2023-07-29T14:16:52;4.10;;;2.10;;
14048;SDS011;7099;53.922;10.728;2023-07-29T14:20:57;3.93;;;2.23;;
14048;SDS011;7099;53.922;10.728;2023-07-29T14:25:03;2.67;;;2.10;;
14048;SDS011;7099;53.922;10.728;2023-07-29T14:29:09;2.63;;;2.40;;
14048;SDS011;7099;53.922;10.728;2023-07-29T14:33:14;2.00;;;1.77;;
14048;SDS011;7099;53.922;10.728;2023-07-29T14:37:20;1.93;;;1.60;;
14048;SDS011;7099;53.922;10.728;2023-07-29T14:41:26;1.87;;;1.70;;
14048;SDS011;7099;53.922;10.728;2023-07-29T14:45:31;2.20;;;1.60;;
14048;SDS011;7099;53.922;10.728;2023-07-29T14:49:37;3.43;;;1.60;;
14048;SDS011;7099;53.922;10.728;2023-07-29T14:53:42;2.03;;;1.40;;
14048;SDS011;7099;53.922;10.728;2023-07-29T14:57:48;3.73;;;1.50;;
14048;SDS011;7099;53.922;10.728;2023-07-29T15:01:53;2.30;;;1.50;;
14048;SDS011;7099;53.922;10.728;2023-07-29T15:05:59;1.60;;;1.50;;
14048;SDS011;7099;53.922;10.728;2023-07-29T15:10:05;1.37;;;1.27;;
14048;SDS011;7099;53.922;10.728;2023-07-29T15:14:11;2.80;;;1.33;;
14048;SDS011;7099;53.922;10.728;2023-07-29T15:18:17;2.97;;;1.70;;
14048;SDS011;7099;53.922;10.728;2023-07-29T15:22:22;4.40;;;1.67;;
14048;SDS011;7099;53.922;10.728;2023-07-29T15:26:28;1.83;;;1.50;;
14048;SDS011;7099;53.922;10.728;2023-07-29T15:30:35;3.40;;;1.40;;
14048;SDS011;7099;53.922;10.728;2023-07-29T15:34:42;1.93;;;1.67;;
14048;SDS011;7099;53.922;10.728;2023-07-29T15:38:47;2.50;;;1.70;;
14048;SDS011;7099;53.922;10.728;2023-07-29T15:42:53;2.33;;;1.60;;
14048;SDS011;7099;53.922;10.728;2023-07-29T15:46:58;2.07;;;1.50;;
14048;SDS011;7099;53.922;10.728;2023-07-29T15:51:04;2.27;;;1.50;;
14048;SDS011;7099;53.922;10.728;2023-07-29T15:55:10;1.60;;;1.30;;
14048;SDS011;7099;53.922;10.728;2023-07-29T15:59:16;5.17;;;1.80;;
14048;SDS011;7099;53.922;10.728;2023-07-29T16:03:21;1.60;;;1.50;;
14048;SDS011;7099;53.922;10.728;2023-07-29T16:07:27;2.20;;;1.60;;
14048;SDS011;7099;53.922;10.728;2023-07-29T16:11:33;1.87;;;1.40;;
14048;SDS011;7099;53.922;10.728;2023-07-29T16:15:38;3.63;;;2.17;;
14048;SDS011;7099;53.922;10.728;2023-07-29T16:23:59;2.83;;;1.87;;
14048;SDS011;7099;53.922;10.728;2023-07-29T16:28:04;2.03;;;1.50;;
14048;SDS011;7099;53.922;10.728;2023-07-29T16:32:10;2.53;;;1.83;;
14048;SDS011;7099;53.922;10.728;2023-07-29T16:36:16;3.33;;;1.80;;
14048;SDS011;7099;53.922;10.728;2023-07-29T16:40:21;3.73;;;1.43;;
14048;SDS011;7099;53.922;10.728;2023-07-29T16:44:27;2.10;;;1.67;;
14048;SDS011;7099;53.922;10.728;2023-07-29T16:48:32;1.73;;;1.40;;
14048;SDS011;7099;53.922;10.728;2023-07-29T16:52:38;6.63;;;1.67;;
14048;SDS011;7099;53.922;10.728;2023-07-29T16:56:44;2.80;;;1.60;;
14048;SDS011;7099;53.922;10.728;2023-07-29T17:00:51;2.57;;;1.60;;
14048;SDS011;7099;53.922;10.728;2023-07-29T17:04:57;8.50;;;1.70;;
14048;SDS011;7099;53.922;10.728;2023-07-29T17:09:04;4.60;;;1.70;;
14048;SDS011;7099;53.922;10.728;2023-07-29T17:13:09;3.93;;;2.30;;
14048;SDS011;7099;53.922;10.728;2023-07-29T17:17:15;3.67;;;1.57;;
14048;SDS011;7099;53.922;10.728;2023-07-29T17:21:20;4.90;;;1.70;;
14048;SDS011;7099;53.922;10.728;2023-07-29T17:25:26;2.30;;;1.97;;
14048;SDS011;7099;53.922;10.728;2023-07-29T17:29:34;4.43;;;1.70;;
14048;SDS011;7099;53.922;10.728;2023-07-29T17:33:39;3.40;;;1.77;;
14048;SDS011;7099;53.922;10.728;2023-07-29T17:37:46;4.80;;;1.57;;
14048;SDS011;7099;53.922;10.728;2023-07-29T17:41:52;3.23;;;1.50;;
14048;SDS011;7099;53.922;10.728;2023-07-29T17:45:57;2.80;;;2.00;;
14048;SDS011;7099;53.922;10.728;2023-07-29T17:50:03;4.07;;;2.00;;
14048;SDS011;7099;53.922;10.728;2023-07-29T17:54:09;2.40;;;1.87;;
14048;SDS011;7099;53.922;10.728;2023-07-29T17:58:15;2.87;;;1.90;;
14048;SDS011;7099;53.922;10.728;2023-07-29T18:02:20;3.63;;;2.13;;
14048;SDS011;7099;53.922;10.728;2023-07-29T18:06:26;5.93;;;1.90;;
14048;SDS011;7099;53.922;10.728;2023-07-29T18:10:31;3.50;;;1.90;;
14048;SDS011;7099;53.922;10.728;2023-07-29T18:14:37;3.30;;;2.13;;
14048;SDS011;7099;53.922;10.728;2023-07-29T18:18:43;3.27;;;1.77;;
14048;SDS011;7099;53.922;10.728;2023-07-29T18:22:48;5.53;;;1.67;;
14048;SDS011;7099;53.922;10.728;2023-07-29T18:26:54;2.30;;;2.00;;
14048;SDS011;7099;53.922;10.728;2023-07-29T18:30:59;2.67;;;1.77;;
14048;SDS011;7099;53.922;10.728;2023-07-29T18:35:11;3.40;;;1.97;;
14048;SDS011;7099;53.922;10.728;2023-07-29T18:39:22;4.33;;;2.10;;
14048;SDS011;7099;53.922;10.728;2023-07-29T18:43:27;3.80;;;1.93;;
14048;SDS011;7099;53.922;10.728;2023-07-29T18:47:34;6.20;;;1.90;;
14048;SDS011;7099;53.922;10.728;2023-07-29T18:51:39;5.00;;;1.80;;
14048;SDS011;7099;53.922;10.728;2023-07-29T18:55:45;5.43;;;2.13;;
14048;SDS011;7099;53.922;10.728;2023-07-29T18:59:50;5.77;;;2.10;;
14048;SDS011;7099;53.922;10.728;2023-07-29T19:03:56;2.20;;;1.70;;
14048;SDS011;7099;53.922;10.728;2023-07-29T19:08:01;2.87;;;1.60;;
14048;SDS011;7099;53.922;10.728;2023-07-29T19:12:07;5.43;;;1.60;;
14048;SDS011;7099;53.922;10.728;2023-07-29T19:16:14;4.80;;;1.90;;
14048;SDS011;7099;53.922;10.728;2023-07-29T19:20:25;4.43;;;2.13;;
14048;SDS011;7099;53.922;10.728;2023-07-29T19:24:31;8.13;;;1.83;;
14048;SDS011;7099;53.922;10.728;2023-07-29T19:28:36;3.80;;;2.00;;
14048;SDS011;7099;53.922;10.728;2023-07-29T19:32:42;3.80;;;2.00;;
14048;SDS011;7099;53.922;10.728;2023-07-29T19:36:50;6.40;;;2.40;;
14048;SDS011;7099;53.922;10.728;2023-07-29T19:40:59;4.10;;;2.10;;
14048;SDS011;7099;53.922;10.728;2023-07-29T19:45:05;7.28;;;2.90;;
14048;SDS011;7099;53.922;10.728;2023-07-29T19:49:11;5.32;;;2.20;;
14048;SDS011;7099;53.922;10.728;2023-07-29T19:53:17;3.90;;;2.27;;
14048;SDS011;7099;53.922;10.728;2023-07-29T19:57:22;6.65;;;1.90;;
14048;SDS011;7099;53.922;10.728;2023-07-29T20:01:28;4.63;;;2.10;;
14048;SDS011;7099;53.922;10.728;2023-07-29T20:05:34;6.70;;;2.30;;
14048;SDS011;7099;53.922;10.728;2023-07-29T20:09:39;3.37;;;1.80;;
14048;SDS011;7099;53.922;10.728;2023-07-29T20:13:45;7.23;;;2.20;;
14048;SDS011;7099;53.922;10.728;2023-07-29T20:17:51;6.10;;;2.17;;
14048;SDS011;7099;53.922;10.728;2023-07-29T20:21:56;3.30;;;1.90;;
14048;SDS011;7099;53.922;10.728;2023-07-29T20:26:02;3.70;;;1.83;;
14048;SDS011;7099;53.922;10.728;2023-07-29T20:30:07;3.00;;;1.60;;
14048;SDS011;7099;53.922;10.728;2023-07-29T20:34:13;3.97;;;1.80;;
14048;SDS011;7099;53.922;10.728;2023-07-29T20:38:19;3.27;;;1.73;;
14048;SDS011;7099;53.922;10.728;2023-07-29T20:42:24;5.72;;;2.00;;
14048;SDS011;7099;53.922;10.728;2023-07-29T20:46:30;5.25;;;2.30;;
14048;SDS011;7099;53.922;10.728;2023-07-29T20:50:41;4.53;;;2.20;;
14048;SDS011;7099;53.922;10.728;2023-07-29T20:54:50;3.80;;;2.10;;
14048;SDS011;7099;53.922;10.728;2023-07-29T20:58:56;7.37;;;2.00;;
14048;SDS011;7099;53.922;10.728;2023-07-29T21:03:02;7.60;;;2.40;;
14048;SDS011;7099;53.922;10.728;2023-07-29T21:07:08;7.97;;;2.92;;
14048;SDS011;7099;53.922;10.728;2023-07-29T21:11:13;6.35;;;2.42;;
14048;SDS011;7099;53.922;10.728;2023-07-29T21:15:19;6.65;;;2.50;;
14048;SDS011;7099;53.922;10.728;2023-07-29T21:19:24;7.43;;;2.47;;
14048;SDS011;7099;53.922;10.728;2023-07-29T21:23:30;9.63;;;2.40;;
14048;SDS011;7099;53.922;10.728;2023-07-29T21:27:35;8.03;;;2.10;;
14048;SDS011;7099;53.922;10.728;2023-07-29T21:31:40;8.37;;;2.50;;
14048;SDS011;7099;53.922;10.728;2023-07-29T21:35:47;7.13;;;2.57;;
14048;SDS011;7099;53.922;10.728;2023-07-29T21:39:53;7.63;;;2.40;;
14048;SDS011;7099;53.922;10.728;2023-07-29T21:43:58;7.70;;;2.33;;
14048;SDS011;7099;53.922;10.728;2023-07-29T21:48:04;7.50;;;2.23;;
14048;SDS011;7099;53.922;10.728;2023-07-29T21:52:10;9.93;;;2.83;;
14048;SDS011;7099;53.922;10.728;2023-07-29T21:56:15;13.17;;;2.40;;
14048;SDS011;7099;53.922;10.728;2023-07-29T22:00:21;12.60;;;2.87;;
14048;SDS011;7099;53.922;10.728;2023-07-29T22:04:26;13.50;;;2.87;;
14048;SDS011;7099;53.922;10.728;2023-07-29T22:08:32;8.03;;;2.23;;
14048;SDS011;7099;53.922;10.728;2023-07-29T22:12:37;10.80;;;2.43;;
14048;SDS011;7099;53.922;10.728;2023-07-29T22:16:43;11.30;;;2.63;;
14048;SDS011;7099;53.922;10.728;2023-07-29T22:20:55;5.70;;;2.70;;
14048;SDS011;7099;53.922;10.728;2023-07-29T22:25:02;10.20;;;3.50;;
14048;SDS011;7099;53.922;10.728;2023-07-29T22:29:08;7.35;;;3.20;;
14048;SDS011;7099;53.922;10.728;2023-07-29T22:33:14;11.20;;;3.55;;
14048;SDS011;7099;53.922;10.728;2023-07-29T22:37:20;13.13;;;3.85;;
14048;SDS011;7099;53.922;10.728;2023-07-29T22:41:25;7.73;;;3.67;;
14048;SDS011;7099;53.922;10.728;2023-07-29T22:49:36;14.60;;;2.87;;
14048;SDS011;7099;53.922;10.728;2023-07-29T22:53:41;10.73;;;4.30;;
14048;SDS011;7099;53.922;10.728;2023-07-29T22:57:47;12.43;;;4.53;;
14048;SDS011;7099;53.922;10.728;2023-07-29T23:01:52;11.70;;;3.77;;
14048;SDS011;7099;53.922;10.728;2023-07-29T23:38:44;9.43;;;4.20;;
14048;SDS011;7099;53.922;10.728;2023-07-29T23:42:49;10.38;;;5.03;;
14048;SDS011;7099;53.922;10.728;2023-07-29T23:46:55;11.63;;;4.10;;
14048;SDS011;7099;53.922;10.728;2023-07-29T23:51:02;7.70;;;4.53;;
14048;SDS011;7099;53.922;10.728;2023-07-29T23:55:07;5.83;;;3.63;;
14048;SDS011;7099;53.922;10.728;2023-07-29T23:59:13;7.10;;;3.10;;
